sensor_id;sensor_type;location;lat;lon;timestamp;pressure;altitude;pressure_sealevel;temperature;humidity
24620;BME280;12763;55.802;37.404;2023-02-13T00:02:14;99754.19;;;-4.08;90.54
24620;BME280;12763;55.802;37.404;2023-02-13T00:04:40;99743.41;;;-4.08;91.00
24620;BME280;12763;55.802;37.404;2023-02-13T00:07:07;99740.69;;;-4.30;90.15
24620;BME280;12763;55.802;37.404;2023-02-13T00:09:34;99733.63;;;-3.98;90.99
24620;BME280;12763;55.802;37.404;2023-02-13T00:11:59;99732.13;;;-4.24;90.81
24620;BME280;12763;55.802;37.404;2023-02-13T00:14:25;99730.06;;;-4.09;90.74
24620;BME280;12763;55.802;37.404;2023-02-13T00:16:50;99730.53;;;-4.27;90.80
24620;BME280;12763;55.802;37.404;2023-02-13T00:19:16;99721.84;;;-4.08;91.56
24620;BME280;12763;55.802;37.404;2023-02-13T00:21:41;99714.00;;;-4.33;90.91
24620;BME280;12763;55.802;37.404;2023-02-13T00:24:07;99714.25;;;-4.25;91.49
24620;BME280;12763;55.802;37.404;2023-02-13T00:26:33;99710.78;;;-4.49;92.11
24620;BME280;12763;55.802;37.404;2023-02-13T00:28:58;99709.19;;;-4.52;91.72
24620;BME280;12763;55.802;37.404;2023-02-13T00:31:24;99705.16;;;-4.46;92.22
24620;BME280;12763;55.802;37.404;2023-02-13T00:33:49;99691.31;;;-4.42;92.74
24620;BME280;12763;55.802;37.404;2023-02-13T00:36:16;99691.84;;;-4.37;92.37
24620;BME280;12763;55.802;37.404;2023-02-13T00:38:43;99678.00;;;-4.32;92.16
24620;BME280;12763;55.802;37.404;2023-02-13T00:41:09;99681.66;;;-4.44;92.31
24620;BME280;12763;55.802;37.404;2023-02-13T00:43:35;99676.50;;;-4.14;92.65
24620;BME280;12763;55.802;37.404;2023-02-13T00:46:01;99678.63;;;-4.29;92.37
24620;BME280;12763;55.802;37.404;2023-02-13T00:48:28;99677.75;;;-4.40;92.99
24620;BME280;12763;55.802;37.404;2023-02-13T00:50:54;99674.31;;;-4.42;93.32
24620;BME280;12763;55.802;37.404;2023-02-13T00:53:20;99671.50;;;-4.19;93.17
24620;BME280;12763;55.802;37.404;2023-02-13T00:55:46;99667.84;;;-4.06;91.71
24620;BME280;12763;55.802;37.404;2023-02-13T00:58:12;99661.59;;;-4.18;92.67
24620;BME280;12763;55.802;37.404;2023-02-13T01:00:38;99661.09;;;-4.34;92.76
24620;BME280;12763;55.802;37.404;2023-02-13T01:03:04;99663.03;;;-4.14;93.36
24620;BME280;12763;55.802;37.404;2023-02-13T01:05:29;99671.03;;;-4.24;92.56
24620;BME280;12763;55.802;37.404;2023-02-13T01:07:55;99670.41;;;-4.16;92.77
24620;BME280;12763;55.802;37.404;2023-02-13T01:10:21;99666.50;;;-4.23;93.65
24620;BME280;12763;55.802;37.404;2023-02-13T01:12:47;99662.69;;;-4.32;92.63
24620;BME280;12763;55.802;37.404;2023-02-13T01:15:13;99653.88;;;-4.34;93.21
24620;BME280;12763;55.802;37.404;2023-02-13T01:17:38;99649.09;;;-4.41;93.66
24620;BME280;12763;55.802;37.404;2023-02-13T01:20:05;99654.84;;;-4.24;94.14
24620;BME280;12763;55.802;37.404;2023-02-13T01:22:30;99644.56;;;-4.19;94.05
24620;BME280;12763;55.802;37.404;2023-02-13T01:24:56;99642.97;;;-4.21;92.17
24620;BME280;12763;55.802;37.404;2023-02-13T01:27:22;99636.22;;;-4.27;93.77
24620;BME280;12763;55.802;37.404;2023-02-13T01:29:47;99637.09;;;-4.04;92.81
24620;BME280;12763;55.802;37.404;2023-02-13T01:32:13;99629.47;;;-3.99;92.46
24620;BME280;12763;55.802;37.404;2023-02-13T01:34:38;99631.31;;;-4.10;92.91
24620;BME280;12763;55.802;37.404;2023-02-13T01:37:04;99619.56;;;-4.09;92.86
24620;BME280;12763;55.802;37.404;2023-02-13T01:39:29;99618.84;;;-4.11;92.16
24620;BME280;12763;55.802;37.404;2023-02-13T01:41:55;99612.81;;;-4.04;92.85
24620;BME280;12763;55.802;37.404;2023-02-13T01:47:06;99592.47;;;-4.08;93.69
24620;BME280;12763;55.802;37.404;2023-02-13T01:49:33;99594.06;;;-4.17;93.64
24620;BME280;12763;55.802;37.404;2023-02-13T01:51:58;99600.59;;;-4.41;94.13
24620;BME280;12763;55.802;37.404;2023-02-13T01:54:25;99588.63;;;-4.48;94.77
24620;BME280;12763;55.802;37.404;2023-02-13T01:56:57;99585.19;;;-4.39;94.32
24620;BME280;12763;55.802;37.404;2023-02-13T01:59:26;99590.03;;;-4.22;94.27
24620;BME280;12763;55.802;37.404;2023-02-13T02:01:53;99577.78;;;-4.04;93.99
24620;BME280;12763;55.802;37.404;2023-02-13T02:04:20;99578.28;;;-4.10;93.73
24620;BME280;12763;55.802;37.404;2023-02-13T02:06:51;99573.91;;;-4.44;94.92
24620;BME280;12763;55.802;37.404;2023-02-13T02:09:28;99555.63;;;-4.19;95.39
24620;BME280;12763;55.802;37.404;2023-02-13T02:14:26;99560.75;;;-4.04;94.78
24620;BME280;12763;55.802;37.404;2023-02-13T02:16:55;99560.59;;;-4.03;94.15
24620;BME280;12763;55.802;37.404;2023-02-13T02:25:28;99565.44;;;-4.18;94.62
24620;BME280;12763;55.802;37.404;2023-02-13T02:27:35;99553.69;;;-4.28;94.63
24620;BME280;12763;55.802;37.404;2023-02-13T02:32:34;99533.31;;;-4.09;94.47
24620;BME280;12763;55.802;37.404;2023-02-13T02:37:40;99537.88;;;-4.21;96.16
24620;BME280;12763;55.802;37.404;2023-02-13T02:40:12;99535.66;;;-4.16;96.33
24620;BME280;12763;55.802;37.404;2023-02-13T02:45:28;99523.06;;;-4.27;96.25
24620;BME280;12763;55.802;37.404;2023-02-13T02:50:52;99511.88;;;-4.11;94.73
24620;BME280;12763;55.802;37.404;2023-02-13T02:53:45;99512.41;;;-4.17;96.51
24620;BME280;12763;55.802;37.404;2023-02-13T02:56:18;99512.97;;;-4.13;97.12
24620;BME280;12763;55.802;37.404;2023-02-13T02:58:47;99505.97;;;-4.05;96.71
24620;BME280;12763;55.802;37.404;2023-02-13T03:01:34;99483.66;;;-3.96;97.50
24620;BME280;12763;55.802;37.404;2023-02-13T03:04:35;99487.94;;;-3.93;96.59
24620;BME280;12763;55.802;37.404;2023-02-13T03:07:21;99494.34;;;-3.74;97.30
24620;BME280;12763;55.802;37.404;2023-02-13T03:10:00;99494.19;;;-3.93;97.27
24620;BME280;12763;55.802;37.404;2023-02-13T03:12:50;99484.16;;;-3.70;98.31
24620;BME280;12763;55.802;37.404;2023-02-13T03:15:38;99479.19;;;-3.86;97.65
24620;BME280;12763;55.802;37.404;2023-02-13T03:18:25;99468.84;;;-3.81;98.83
24620;BME280;12763;55.802;37.404;2023-02-13T03:21:11;99469.97;;;-3.83;99.79
24620;BME280;12763;55.802;37.404;2023-02-13T03:32:07;99432.09;;;-3.40;98.52
24620;BME280;12763;55.802;37.404;2023-02-13T03:34:37;99423.81;;;-3.48;98.24
24620;BME280;12763;55.802;37.404;2023-02-13T03:37:25;99413.97;;;-3.59;99.22
24620;BME280;12763;55.802;37.404;2023-02-13T03:43:23;99407.47;;;-3.26;99.43
24620;BME280;12763;55.802;37.404;2023-02-13T03:45:50;99404.00;;;-2.98;98.50
24620;BME280;12763;55.802;37.404;2023-02-13T03:48:23;99411.28;;;-2.99;98.71
24620;BME280;12763;55.802;37.404;2023-02-13T03:51:09;99405.63;;;-2.86;99.21
24620;BME280;12763;55.802;37.404;2023-02-13T03:53:37;99410.81;;;-3.04;98.39
24620;BME280;12763;55.802;37.404;2023-02-13T03:56:04;99412.44;;;-2.91;98.36
24620;BME280;12763;55.802;37.404;2023-02-13T03:58:50;99401.38;;;-2.79;98.17
24620;BME280;12763;55.802;37.404;2023-02-13T04:01:35;99393.63;;;-2.63;96.33
24620;BME280;12763;55.802;37.404;2023-02-13T04:04:08;99402.63;;;-2.43;96.55
24620;BME280;12763;55.802;37.404;2023-02-13T04:06:45;99401.59;;;-2.42;96.11
24620;BME280;12763;55.802;37.404;2023-02-13T04:09:13;99391.19;;;-2.66;97.25
24620;BME280;12763;55.802;37.404;2023-02-13T04:14:14;99381.13;;;-2.45;97.76
24620;BME280;12763;55.802;37.404;2023-02-13T04:16:44;99385.22;;;-2.50;98.07
24620;BME280;12763;55.802;37.404;2023-02-13T04:19:12;99371.28;;;-2.46;98.73
24620;BME280;12763;55.802;37.404;2023-02-13T04:21:38;99361.19;;;-2.53;98.84
24620;BME280;12763;55.802;37.404;2023-02-13T04:24:04;99370.19;;;-2.33;99.91
24620;BME280;12763;55.802;37.404;2023-02-13T04:26:34;99358.25;;;-2.41;99.90
24620;BME280;12763;55.802;37.404;2023-02-13T04:29:00;99362.22;;;-2.25;99.74
24620;BME280;12763;55.802;37.404;2023-02-13T04:31:26;99356.25;;;-2.39;99.97
24620;BME280;12763;55.802;37.404;2023-02-13T04:33:52;99355.94;;;-2.26;100.00
24620;BME280;12763;55.802;37.404;2023-02-13T04:36:17;99347.28;;;-2.29;99.84
24620;BME280;12763;55.802;37.404;2023-02-13T04:38:43;99345.41;;;-2.29;100.00
24620;BME280;12763;55.802;37.404;2023-02-13T04:41:09;99334.59;;;-2.48;100.00
24620;BME280;12763;55.802;37.404;2023-02-13T04:43:35;99332.63;;;-2.37;100.00
24620;BME280;12763;55.802;37.404;2023-02-13T04:46:01;99329.91;;;-2.37;100.00
24620;BME280;12763;55.802;37.404;2023-02-13T04:48:27;99328.22;;;-2.38;100.00
24620;BME280;12763;55.802;37.404;2023-02-13T04:50:53;99321.41;;;-2.32;100.00
24620;BME280;12763;55.802;37.404;2023-02-13T04:53:18;99314.22;;;-2.04;100.00
24620;BME280;12763;55.802;37.404;2023-02-13T04:55:44;99307.28;;;-2.16;99.72
24620;BME280;12763;55.802;37.404;2023-02-13T04:58:09;99314.50;;;-1.88;100.00
24620;BME280;12763;55.802;37.404;2023-02-13T05:00:35;99312.56;;;-2.24;99.87
24620;BME280;12763;55.802;37.404;2023-02-13T05:03:08;99310.09;;;-1.89;100.00
24620;BME280;12763;55.802;37.404;2023-02-13T05:05:34;99303.81;;;-1.90;99.47
24620;BME280;12763;55.802;37.404;2023-02-13T05:08:00;99295.41;;;-1.87;98.92
24620;BME280;12763;55.802;37.404;2023-02-13T05:10:25;99281.94;;;-1.96;99.34
24620;BME280;12763;55.802;37.404;2023-02-13T05:12:51;99291.19;;;-2.08;100.00
24620;BME280;12763;55.802;37.404;2023-02-13T05:15:16;99291.75;;;-1.95;100.00
24620;BME280;12763;55.802;37.404;2023-02-13T05:17:43;99301.56;;;-2.04;100.00
24620;BME280;12763;55.802;37.404;2023-02-13T05:20:08;99292.72;;;-1.87;100.00
24620;BME280;12763;55.802;37.404;2023-02-13T05:22:34;99292.13;;;-1.81;99.16
24620;BME280;12763;55.802;37.404;2023-02-13T05:25:18;99290.75;;;-1.94;100.00
24620;BME280;12763;55.802;37.404;2023-02-13T05:27:43;99293.56;;;-1.86;99.52
24620;BME280;12763;55.802;37.404;2023-02-13T05:30:09;99279.81;;;-2.02;100.00
24620;BME280;12763;55.802;37.404;2023-02-13T05:32:35;99273.09;;;-1.98;100.00
24620;BME280;12763;55.802;37.404;2023-02-13T05:35:01;99275.97;;;-2.09;100.00
24620;BME280;12763;55.802;37.404;2023-02-13T05:37:26;99274.31;;;-1.73;100.00
24620;BME280;12763;55.802;37.404;2023-02-13T05:39:52;99270.94;;;-1.85;100.00
24620;BME280;12763;55.802;37.404;2023-02-13T05:42:17;99279.97;;;-2.13;100.00
24620;BME280;12763;55.802;37.404;2023-02-13T05:44:43;99265.66;;;-1.77;100.00
24620;BME280;12763;55.802;37.404;2023-02-13T05:47:08;99277.69;;;-2.08;100.00
24620;BME280;12763;55.802;37.404;2023-02-13T05:49:34;99276.31;;;-1.75;100.00
24620;BME280;12763;55.802;37.404;2023-02-13T05:51:59;99279.09;;;-2.04;100.00
24620;BME280;12763;55.802;37.404;2023-02-13T05:54:25;99266.38;;;-1.85;100.00
24620;BME280;12763;55.802;37.404;2023-02-13T05:56:50;99280.22;;;-2.07;100.00
24620;BME280;12763;55.802;37.404;2023-02-13T05:59:16;99289.31;;;-1.89;100.00
24620;BME280;12763;55.802;37.404;2023-02-13T06:01:41;99280.75;;;-1.84;100.00
24620;BME280;12763;55.802;37.404;2023-02-13T06:04:07;99288.16;;;-1.86;100.00
24620;BME280;12763;55.802;37.404;2023-02-13T06:06:32;99277.63;;;-1.89;100.00
24620;BME280;12763;55.802;37.404;2023-02-13T06:08:58;99265.66;;;-1.87;100.00
24620;BME280;12763;55.802;37.404;2023-02-13T06:11:23;99288.88;;;-1.84;100.00
24620;BME280;12763;55.802;37.404;2023-02-13T06:13:49;99284.22;;;-1.55;100.00
24620;BME280;12763;55.802;37.404;2023-02-13T06:16:14;99286.66;;;-1.61;100.00
24620;BME280;12763;55.802;37.404;2023-02-13T06:18:40;99274.97;;;-1.62;100.00
24620;BME280;12763;55.802;37.404;2023-02-13T06:21:06;99272.94;;;-1.50;99.63
24620;BME280;12763;55.802;37.404;2023-02-13T06:23:32;99272.38;;;-1.54;99.57
24620;BME280;12763;55.802;37.404;2023-02-13T06:26:04;99275.53;;;-1.58;99.60
24620;BME280;12763;55.802;37.404;2023-02-13T06:28:30;99269.25;;;-1.49;99.12
24620;BME280;12763;55.802;37.404;2023-02-13T06:30:55;99264.28;;;-1.27;98.61
24620;BME280;12763;55.802;37.404;2023-02-13T06:33:21;99267.25;;;-1.47;98.58
24620;BME280;12763;55.802;37.404;2023-02-13T06:35:47;99246.56;;;-1.39;98.63
24620;BME280;12763;55.802;37.404;2023-02-13T06:38:12;99247.19;;;-1.27;98.49
24620;BME280;12763;55.802;37.404;2023-02-13T06:40:38;99253.66;;;-1.38;98.83
24620;BME280;12763;55.802;37.404;2023-02-13T06:43:03;99232.09;;;-1.30;98.64
24620;BME280;12763;55.802;37.404;2023-02-13T06:45:29;99237.16;;;-1.17;98.83
24620;BME280;12763;55.802;37.404;2023-02-13T06:47:54;99236.91;;;-1.24;96.89
24620;BME280;12763;55.802;37.404;2023-02-13T06:50:20;99228.09;;;-1.26;98.06
24620;BME280;12763;55.802;37.404;2023-02-13T06:52:49;99233.97;;;-1.30;99.06
24620;BME280;12763;55.802;37.404;2023-02-13T06:55:15;99226.63;;;-1.20;98.70
24620;BME280;12763;55.802;37.404;2023-02-13T06:57:42;99217.22;;;-0.98;98.50
24620;BME280;12763;55.802;37.404;2023-02-13T07:00:08;99217.72;;;-1.12;98.98
24620;BME280;12763;55.802;37.404;2023-02-13T07:02:37;99218.84;;;-1.05;99.15
24620;BME280;12763;55.802;37.404;2023-02-13T07:05:03;99222.66;;;-1.26;98.96
24620;BME280;12763;55.802;37.404;2023-02-13T07:07:31;99217.13;;;-1.06;99.85
24620;BME280;12763;55.802;37.404;2023-02-13T07:09:57;99204.50;;;-1.15;100.00
24620;BME280;12763;55.802;37.404;2023-02-13T07:12:22;99204.06;;;-0.93;99.86
24620;BME280;12763;55.802;37.404;2023-02-13T07:14:48;99208.69;;;-0.68;99.16
24620;BME280;12763;55.802;37.404;2023-02-13T07:17:13;99202.34;;;-0.59;98.14
24620;BME280;12763;55.802;37.404;2023-02-13T07:19:39;99200.34;;;-0.57;97.10
24620;BME280;12763;55.802;37.404;2023-02-13T07:22:04;99192.00;;;-0.38;96.28
24620;BME280;12763;55.802;37.404;2023-02-13T07:24:30;99191.56;;;-0.51;97.26
24620;BME280;12763;55.802;37.404;2023-02-13T07:26:57;99184.25;;;-0.33;96.36
24620;BME280;12763;55.802;37.404;2023-02-13T07:29:23;99180.13;;;-0.45;96.60
24620;BME280;12763;55.802;37.404;2023-02-13T07:31:48;99183.19;;;-0.40;97.53
24620;BME280;12763;55.802;37.404;2023-02-13T07:34:14;99178.41;;;-0.46;97.22
24620;BME280;12763;55.802;37.404;2023-02-13T07:36:40;99175.53;;;-0.19;96.63
24620;BME280;12763;55.802;37.404;2023-02-13T07:39:05;99161.50;;;-0.40;97.71
24620;BME280;12763;55.802;37.404;2023-02-13T07:41:31;99166.31;;;-0.34;96.96
24620;BME280;12763;55.802;37.404;2023-02-13T07:43:56;99175.13;;;-0.32;98.42
24620;BME280;12763;55.802;37.404;2023-02-13T07:46:22;99160.25;;;-0.28;98.75
24620;BME280;12763;55.802;37.404;2023-02-13T07:48:47;99164.63;;;-0.27;98.57
24620;BME280;12763;55.802;37.404;2023-02-13T07:51:13;99163.41;;;-0.07;98.62
24620;BME280;12763;55.802;37.404;2023-02-13T07:53:38;99157.59;;;-0.20;99.31
24620;BME280;12763;55.802;37.404;2023-02-13T07:56:07;99148.63;;;0.14;98.20
24620;BME280;12763;55.802;37.404;2023-02-13T07:58:33;99159.81;;;-0.15;98.87
24620;BME280;12763;55.802;37.404;2023-02-13T08:01:04;99152.03;;;0.16;98.63
24620;BME280;12763;55.802;37.404;2023-02-13T08:03:30;99153.09;;;0.31;97.70
24620;BME280;12763;55.802;37.404;2023-02-13T08:05:55;99151.97;;;0.41;97.35
24620;BME280;12763;55.802;37.404;2023-02-13T08:08:21;99158.56;;;0.39;97.62
24620;BME280;12763;55.802;37.404;2023-02-13T08:10:46;99158.25;;;0.50;96.93
24620;BME280;12763;55.802;37.404;2023-02-13T08:13:30;99143.69;;;0.17;98.21
24620;BME280;12763;55.802;37.404;2023-02-13T08:15:56;99145.09;;;0.63;98.13
24620;BME280;12763;55.802;37.404;2023-02-13T08:18:21;99132.19;;;0.23;98.93
24620;BME280;12763;55.802;37.404;2023-02-13T08:20:47;99140.00;;;0.76;97.84
24620;BME280;12763;55.802;37.404;2023-02-13T08:23:13;99149.03;;;0.85;96.69
24620;BME280;12763;55.802;37.404;2023-02-13T08:25:38;99122.97;;;0.58;96.94
24620;BME280;12763;55.802;37.404;2023-02-13T08:28:04;99130.16;;;0.25;98.01
24620;BME280;12763;55.802;37.404;2023-02-13T08:30:29;99121.91;;;0.35;100.00
24620;BME280;12763;55.802;37.404;2023-02-13T08:32:55;99112.81;;;0.52;98.60
24620;BME280;12763;55.802;37.404;2023-02-13T08:35:21;99107.66;;;0.33;100.00
24620;BME280;12763;55.802;37.404;2023-02-13T08:37:47;99120.16;;;0.26;100.00
24620;BME280;12763;55.802;37.404;2023-02-13T08:40:12;99113.41;;;0.30;100.00
24620;BME280;12763;55.802;37.404;2023-02-13T08:42:38;99118.91;;;0.54;99.87
24620;BME280;12763;55.802;37.404;2023-02-13T08:45:03;99111.09;;;0.51;100.00
24620;BME280;12763;55.802;37.404;2023-02-13T08:47:30;99103.72;;;0.93;99.66
24620;BME280;12763;55.802;37.404;2023-02-13T08:49:55;99101.34;;;0.90;98.81
24620;BME280;12763;55.802;37.404;2023-02-13T08:52:21;99101.47;;;0.73;99.17
24620;BME280;12763;55.802;37.404;2023-02-13T08:54:46;99091.78;;;0.62;100.00
24620;BME280;12763;55.802;37.404;2023-02-13T08:57:12;99090.09;;;0.69;100.00
24620;BME280;12763;55.802;37.404;2023-02-13T08:59:37;99089.03;;;0.46;100.00
24620;BME280;12763;55.802;37.404;2023-02-13T09:02:03;99101.22;;;0.42;100.00
24620;BME280;12763;55.802;37.404;2023-02-13T09:04:28;99096.81;;;0.41;100.00
24620;BME280;12763;55.802;37.404;2023-02-13T09:06:54;99092.63;;;0.54;100.00
24620;BME280;12763;55.802;37.404;2023-02-13T09:09:20;99086.34;;;0.62;100.00
24620;BME280;12763;55.802;37.404;2023-02-13T09:11:45;99086.34;;;0.54;100.00
24620;BME280;12763;55.802;37.404;2023-02-13T09:14:11;99093.16;;;0.66;100.00
24620;BME280;12763;55.802;37.404;2023-02-13T09:16:36;99096.47;;;0.36;100.00
24620;BME280;12763;55.802;37.404;2023-02-13T09:19:02;99071.41;;;0.58;100.00
24620;BME280;12763;55.802;37.404;2023-02-13T09:21:28;99078.56;;;0.91;100.00
24620;BME280;12763;55.802;37.404;2023-02-13T09:23:55;99074.50;;;0.95;100.00
24620;BME280;12763;55.802;37.404;2023-02-13T09:26:21;99056.50;;;1.02;100.00
24620;BME280;12763;55.802;37.404;2023-02-13T09:28:46;99053.09;;;1.08;100.00
24620;BME280;12763;55.802;37.404;2023-02-13T09:31:16;99044.81;;;1.10;100.00
24620;BME280;12763;55.802;37.404;2023-02-13T09:33:45;99039.84;;;1.13;100.00
24620;BME280;12763;55.802;37.404;2023-02-13T09:36:16;99039.00;;;1.37;100.00
24620;BME280;12763;55.802;37.404;2023-02-13T09:38:44;99032.53;;;1.22;100.00
24620;BME280;12763;55.802;37.404;2023-02-13T09:41:14;99020.44;;;1.57;100.00
24620;BME280;12763;55.802;37.404;2023-02-13T09:44:23;99024.16;;;1.56;100.00
24620;BME280;12763;55.802;37.404;2023-02-13T09:46:37;99012.25;;;1.65;100.00
24620;BME280;12763;55.802;37.404;2023-02-13T09:49:07;99028.56;;;1.65;100.00
24620;BME280;12763;55.802;37.404;2023-02-13T09:51:34;99014.59;;;1.76;100.00
24620;BME280;12763;55.802;37.404;2023-02-13T09:54:06;99017.81;;;1.71;100.00
24620;BME280;12763;55.802;37.404;2023-02-13T09:56:39;99013.50;;;1.93;100.00
24620;BME280;12763;55.802;37.404;2023-02-13T10:01:59;99010.63;;;1.87;100.00
24620;BME280;12763;55.802;37.404;2023-02-13T10:07:00;99010.13;;;1.83;100.00
24620;BME280;12763;55.802;37.404;2023-02-13T10:09:37;99000.59;;;1.87;100.00
24620;BME280;12763;55.802;37.404;2023-02-13T10:12:21;99013.66;;;1.92;100.00
24620;BME280;12763;55.802;37.404;2023-02-13T10:17:30;99004.25;;;2.33;100.00
24620;BME280;12763;55.802;37.404;2023-02-13T10:19:58;99004.16;;;2.18;100.00
24620;BME280;12763;55.802;37.404;2023-02-13T10:22:28;98994.22;;;2.03;100.00
24620;BME280;12763;55.802;37.404;2023-02-13T10:24:58;98987.19;;;2.16;99.85
24620;BME280;12763;55.802;37.404;2023-02-13T10:27:27;98993.56;;;2.31;100.00
24620;BME280;12763;55.802;37.404;2023-02-13T10:30:04;98996.94;;;2.33;99.87
24620;BME280;12763;55.802;37.404;2023-02-13T10:32:35;98992.81;;;2.37;100.00
24620;BME280;12763;55.802;37.404;2023-02-13T10:35:01;98980.50;;;2.50;100.00
24620;BME280;12763;55.802;37.404;2023-02-13T10:37:28;98977.78;;;2.72;100.00
24620;BME280;12763;55.802;37.404;2023-02-13T10:39:54;98988.03;;;2.70;98.91
24620;BME280;12763;55.802;37.404;2023-02-13T10:42:20;98965.66;;;2.52;99.52
24620;BME280;12763;55.802;37.404;2023-02-13T10:47:34;98955.44;;;2.77;99.56
24620;BME280;12763;55.802;37.404;2023-02-13T11:03:04;98927.56;;;2.89;99.64
24620;BME280;12763;55.802;37.404;2023-02-13T11:05:31;98935.31;;;3.01;99.43
24620;BME280;12763;55.802;37.404;2023-02-13T11:07:58;98927.72;;;2.73;100.00
24620;BME280;12763;55.802;37.404;2023-02-13T11:10:24;98923.91;;;2.97;100.00
24620;BME280;12763;55.802;37.404;2023-02-13T11:12:51;98917.44;;;2.98;100.00
24620;BME280;12763;55.802;37.404;2023-02-13T11:17:46;98925.81;;;2.59;100.00
24620;BME280;12763;55.802;37.404;2023-02-13T11:20:28;98921.91;;;2.91;100.00
24620;BME280;12763;55.802;37.404;2023-02-13T11:22:55;98916.63;;;2.75;100.00
24620;BME280;12763;55.802;37.404;2023-02-13T11:25:25;98919.03;;;2.92;100.00
24620;BME280;12763;55.802;37.404;2023-02-13T11:27:53;98912.28;;;3.03;100.00
24620;BME280;12763;55.802;37.404;2023-02-13T11:32:59;98893.66;;;2.92;100.00
24620;BME280;12763;55.802;37.404;2023-02-13T11:35:28;98886.28;;;2.78;100.00
24620;BME280;12763;55.802;37.404;2023-02-13T11:38:09;98885.00;;;3.03;100.00
24620;BME280;12763;55.802;37.404;2023-02-13T11:40:35;98870.63;;;2.94;100.00
24620;BME280;12763;55.802;37.404;2023-02-13T11:43:04;98879.38;;;3.05;100.00
24620;BME280;12763;55.802;37.404;2023-02-13T11:45:31;98867.97;;;3.01;100.00
24620;BME280;12763;55.802;37.404;2023-02-13T11:47:56;98858.41;;;3.20;100.00
24620;BME280;12763;55.802;37.404;2023-02-13T11:50:30;98871.94;;;2.98;100.00
24620;BME280;12763;55.802;37.404;2023-02-13T11:53:18;98858.88;;;2.94;100.00
24620;BME280;12763;55.802;37.404;2023-02-13T11:55:59;98856.16;;;3.09;100.00
24620;BME280;12763;55.802;37.404;2023-02-13T11:58:25;98861.06;;;3.42;100.00
24620;BME280;12763;55.802;37.404;2023-02-13T12:04:01;98858.47;;;3.55;99.48
24620;BME280;12763;55.802;37.404;2023-02-13T12:06:27;98843.03;;;3.63;100.00
24620;BME280;12763;55.802;37.404;2023-02-13T12:08:53;98838.19;;;3.79;97.65
24620;BME280;12763;55.802;37.404;2023-02-13T12:14:17;98853.09;;;3.62;99.08
24620;BME280;12763;55.802;37.404;2023-02-13T12:17:05;98844.56;;;3.50;98.90
24620;BME280;12763;55.802;37.404;2023-02-13T12:19:34;98849.13;;;3.14;100.00
24620;BME280;12763;55.802;37.404;2023-02-13T12:27:11;98829.56;;;3.25;100.00
24620;BME280;12763;55.802;37.404;2023-02-13T12:34:48;98839.31;;;3.34;100.00
24620;BME280;12763;55.802;37.404;2023-02-13T12:39:51;98828.66;;;3.54;100.00
24620;BME280;12763;55.802;37.404;2023-02-13T12:47:26;98812.50;;;3.38;100.00
24620;BME280;12763;55.802;37.404;2023-02-13T13:08:21;98780.53;;;3.68;100.00
24620;BME280;12763;55.802;37.404;2023-02-13T13:16:28;98779.38;;;3.55;100.00
24620;BME280;12763;55.802;37.404;2023-02-13T13:21:47;98789.03;;;3.22;100.00
24620;BME280;12763;55.802;37.404;2023-02-13T13:24:20;98781.41;;;3.18;100.00
24620;BME280;12763;55.802;37.404;2023-02-13T13:26:49;98774.91;;;3.33;100.00
24620;BME280;12763;55.802;37.404;2023-02-13T13:29:18;98773.34;;;3.45;100.00
24620;BME280;12763;55.802;37.404;2023-02-13T13:31:47;98779.59;;;3.39;100.00
24620;BME280;12763;55.802;37.404;2023-02-13T13:34:17;98782.16;;;3.26;100.00
24620;BME280;12763;55.802;37.404;2023-02-13T13:36:46;98775.19;;;3.38;100.00
24620;BME280;12763;55.802;37.404;2023-02-13T13:47:19;98761.91;;;3.35;100.00
24620;BME280;12763;55.802;37.404;2023-02-13T13:49:48;98752.97;;;3.41;100.00
24620;BME280;12763;55.802;37.404;2023-02-13T13:52:21;98754.13;;;3.32;100.00
24620;BME280;12763;55.802;37.404;2023-02-13T13:54:47;98769.47;;;3.19;100.00
24620;BME280;12763;55.802;37.404;2023-02-13T13:57:16;98755.81;;;3.33;100.00
24620;BME280;12763;55.802;37.404;2023-02-13T14:07:43;98745.56;;;3.35;100.00
24620;BME280;12763;55.802;37.404;2023-02-13T14:12:48;98735.38;;;3.08;100.00
24620;BME280;12763;55.802;37.404;2023-02-13T14:15:56;98726.25;;;3.01;100.00
24620;BME280;12763;55.802;37.404;2023-02-13T14:20:39;98712.84;;;3.35;100.00
24620;BME280;12763;55.802;37.404;2023-02-13T14:26:08;98719.16;;;3.21;100.00
24620;BME280;12763;55.802;37.404;2023-02-13T14:28:34;98716.50;;;3.42;100.00
24620;BME280;12763;55.802;37.404;2023-02-13T14:31:04;98722.66;;;3.51;100.00
24620;BME280;12763;55.802;37.404;2023-02-13T14:33:31;98720.94;;;3.29;100.00
24620;BME280;12763;55.802;37.404;2023-02-13T14:36:05;98705.63;;;3.28;100.00
24620;BME280;12763;55.802;37.404;2023-02-13T14:38:31;98713.47;;;3.37;100.00
24620;BME280;12763;55.802;37.404;2023-02-13T14:40:58;98701.53;;;3.17;100.00
24620;BME280;12763;55.802;37.404;2023-02-13T14:45:56;98709.81;;;3.09;100.00
24620;BME280;12763;55.802;37.404;2023-02-13T14:48:35;98706.13;;;3.17;100.00
24620;BME280;12763;55.802;37.404;2023-02-13T14:51:03;98692.72;;;3.36;100.00
24620;BME280;12763;55.802;37.404;2023-02-13T14:53:30;98687.22;;;3.15;100.00
24620;BME280;12763;55.802;37.404;2023-02-13T14:55:59;98694.38;;;3.16;100.00
24620;BME280;12763;55.802;37.404;2023-02-13T14:58:28;98691.53;;;3.24;100.00
24620;BME280;12763;55.802;37.404;2023-02-13T15:03:46;98672.09;;;3.13;100.00
24620;BME280;12763;55.802;37.404;2023-02-13T15:06:13;98678.25;;;3.00;100.00
24620;BME280;12763;55.802;37.404;2023-02-13T15:08:47;98663.06;;;3.12;100.00
24620;BME280;12763;55.802;37.404;2023-02-13T15:11:36;98659.31;;;3.13;100.00
24620;BME280;12763;55.802;37.404;2023-02-13T15:16:45;98624.53;;;3.58;100.00
24620;BME280;12763;55.802;37.404;2023-02-13T15:19:16;98623.88;;;3.55;100.00
24620;BME280;12763;55.802;37.404;2023-02-13T15:23:28;98629.97;;;3.15;100.00
24620;BME280;12763;55.802;37.404;2023-02-13T15:26:02;98632.19;;;3.05;100.00
24620;BME280;12763;55.802;37.404;2023-02-13T15:28:29;98623.69;;;3.15;100.00